Airfield :
LOGIN :

Register | Disclaimer

   EN    FR    IT 

 










Legend :    VFR   Marginal VFR   IFR   Intensive IFR   Very Intensive IFR
Visi :
Ceiling :
>= 8 km
>= 3000ft
5 to 8 km
1000 to 3000 ft
1500m to 5 km
500 to 1000 ft
800 to 1500m
200 to 500 ft
< 800m
< 200 ft
Symbols :   Thunderstorms  Fog  Heavy snow  Heavy precipitations  Wind > 20 kt
SIGMETs :     Misc.  Thunderstorms  Icing  Turbulence  Mountain Waves  Volcanic Ashes






- Airport Elevation : 586 ft


LIMN - Cameri Air Force Base

CURRENT METAR :
  • 191655Z 35009KT 1600 DZ BR OVC017 07/07 Q1015 REDZ RMK OVC VIS MIN 1600 YLO

EXPIRED METARs :
  • 191625Z 35009KT 1800 +DZ BR OVC020 07/07 Q1014 RMK OVC VIS MIN 1800 YLO
  • 191555Z 35011KT 2500 DZ BR OVC020 07/07 Q1014 RMK OVC VIS MIN 2500 YLO
  • 191529Z 36011KT 4000 -DZ BR SCT010 OVC020 08/07 Q1014 RMK OVC VIS MIN 4000 GRN
  • 191455Z 36012KT 6000 -RA SCT010 OVC025 08/07 Q1014 RMK OVC VIS MIN 6000 WHT

TAF TAF LIMN
Valid from the 19 at 18:00 until the 20 at 03:00 UTC


191700Z 1918/2003 35010KT 3000 RA BR OVC020
TEMPO 1918/2003 1500 RA BR



MET'MAP, your aeronautical weather chart ! - Copyright ORBIFLY December 2007 - Disclaimer

ORBIFLY MET'MAP TEAM :

Programming & Development : Alexandra Zaïnal
Concept & Development : Baudouin d'Aumeries
Co-Development & Prog : Marc-Olivier Méhu
Technical & hardware support : Manuel Goepfert

Contact : metmap@orbifly.com




SOURCES & CREDITS :

   NOAA